createdAt,value
2023-03-06T00:00:00.666Z,0.6
2023-03-06T00:10:00.663Z,0.6
2023-03-06T00:20:00.699Z,0.2
2023-03-06T00:30:00.762Z,0.2
2023-03-06T00:40:00.712Z,0.6
2023-03-06T00:50:00.651Z,0.6
2023-03-06T01:00:00.756Z,0.6
2023-03-06T01:10:00.641Z,0.4
2023-03-06T01:20:00.838Z,0.4
2023-03-06T01:30:00.631Z,0.3
2023-03-06T01:40:00.719Z,0.2
2023-03-06T01:50:00.606Z,0.2
2023-03-06T02:00:00.682Z,0.4
2023-03-06T02:10:00.658Z,0.4
2023-03-06T02:20:00.713Z,0.5
2023-03-06T02:30:00.693Z,0.5
2023-03-06T02:40:00.753Z,0.8
2023-03-06T02:50:00.650Z,0.8
2023-03-06T03:00:00.663Z,0.8
2023-03-06T03:10:00.661Z,0.7
2023-03-06T03:20:00.668Z,0.6
2023-03-06T03:30:00.667Z,0.7
2023-03-06T03:40:00.688Z,0.6
2023-03-06T03:50:00.642Z,0.5
2023-03-06T04:00:00.642Z,0.6
2023-03-06T04:10:00.652Z,0.6
2023-03-06T04:20:00.765Z,0.6
2023-03-06T04:30:00.714Z,0.8
2023-03-06T04:40:00.657Z,0.9
2023-03-06T04:50:00.682Z,0.8
2023-03-06T05:00:00.650Z,0.7
2023-03-06T05:10:00.646Z,0.7
2023-03-06T05:20:00.666Z,0.8
2023-03-06T05:30:00.663Z,0.8
2023-03-06T05:40:00.719Z,0.8
2023-03-06T05:50:00.703Z,0.7
2023-03-06T06:00:00.673Z,0.8
2023-03-06T06:10:03.441Z,0.8
2023-03-06T06:20:00.681Z,0.8
2023-03-06T06:30:00.728Z,0.9
2023-03-06T06:40:00.712Z,1.0
2023-03-06T06:50:00.728Z,1.1
2023-03-06T07:00:00.673Z,1.1
2023-03-06T07:10:00.720Z,1.3
2023-03-06T07:20:00.720Z,1.4
2023-03-06T07:30:00.650Z,1.4
2023-03-06T07:40:00.661Z,1.5
2023-03-06T07:50:00.645Z,1.5
2023-03-06T08:00:00.757Z,1.6
2023-03-06T08:10:00.714Z,1.7
2023-03-06T08:20:00.682Z,1.6
2023-03-06T08:30:00.816Z,1.6
2023-03-06T08:40:00.661Z,1.5
2023-03-06T08:50:00.977Z,1.5
2023-03-06T09:00:00.661Z,1.7
2023-03-06T09:10:00.732Z,1.9
2023-03-06T09:20:00.686Z,2.5
2023-03-06T09:30:00.666Z,3.0
2023-03-06T09:40:00.695Z,3.5
2023-03-06T09:50:00.691Z,4.0
2023-03-06T10:00:03.864Z,4.8
2023-03-06T10:10:00.743Z,4.7
2023-03-06T10:20:00.682Z,4.6
2023-03-06T10:30:03.638Z,4.3
2023-03-06T10:40:00.678Z,4.3
2023-03-06T10:50:00.684Z,5.5
2023-03-06T11:00:00.667Z,5.4
2023-03-06T11:10:00.699Z,5.3
2023-03-06T11:20:00.730Z,5.1
2023-03-06T11:30:00.733Z,5.3
2023-03-06T11:40:00.697Z,5.3
2023-03-06T11:50:00.660Z,5.3
2023-03-06T12:00:00.692Z,5.5
2023-03-06T12:10:00.743Z,5.5
2023-03-06T12:20:00.660Z,5.3
2023-03-06T12:30:00.709Z,5.0
2023-03-06T12:40:00.678Z,5.0
2023-03-06T12:50:00.712Z,5.2
2023-03-06T13:00:00.668Z,5.0
2023-03-06T13:10:00.704Z,5.0
2023-03-06T13:20:00.671Z,5.2
2023-03-06T13:30:00.673Z,5.6
2023-03-06T13:40:00.688Z,5.4
2023-03-06T13:50:00.641Z,5.2
2023-03-06T14:00:08.740Z,4.8
2023-03-06T14:10:00.744Z,4.3
2023-03-06T14:20:00.702Z,4.3
2023-03-06T14:30:00.632Z,4.3
2023-03-06T14:40:00.686Z,4.3
2023-03-06T14:50:00.645Z,4.2
2023-03-06T15:00:00.732Z,4.2
2023-03-06T15:10:00.691Z,4.1
2023-03-06T15:20:00.668Z,4.2
2023-03-06T15:30:00.688Z,4.2
2023-03-06T15:40:00.691Z,4.1
2023-03-06T15:50:00.679Z,3.9
2023-03-06T16:00:00.682Z,3.8
2023-03-06T16:10:00.657Z,3.8
2023-03-06T16:20:00.663Z,3.7
2023-03-06T16:30:00.699Z,3.7
2023-03-06T16:40:00.681Z,3.5
2023-03-06T16:50:00.803Z,3.5
2023-03-06T17:00:00.655Z,3.5
2023-03-06T17:10:00.649Z,3.4
2023-03-06T17:20:00.808Z,3.2
2023-03-06T17:30:00.759Z,3.2
2023-03-06T17:40:00.682Z,3.1
2023-03-06T17:50:00.740Z,2.8
2023-03-06T18:00:00.641Z,2.8
2023-03-06T18:10:00.656Z,2.9
2023-03-06T18:20:00.618Z,2.9
2023-03-06T18:30:00.649Z,2.9
2023-03-06T18:40:00.709Z,2.6
2023-03-06T18:50:00.740Z,2.5
2023-03-06T19:00:01.872Z,2.1
2023-03-06T19:10:00.685Z,1.8
2023-03-06T19:20:00.739Z,1.5
2023-03-06T19:30:00.672Z,1.5
2023-03-06T19:40:00.696Z,1.4
2023-03-06T19:50:00.656Z,1.1
2023-03-06T20:00:00.667Z,0.9
2023-03-06T20:10:00.710Z,1.0
2023-03-06T20:20:00.693Z,0.8
2023-03-06T20:30:00.678Z,1.1
2023-03-06T20:40:00.666Z,1.1
2023-03-06T20:50:00.656Z,0.8
2023-03-06T21:00:00.666Z,0.5
2023-03-06T21:10:00.643Z,0.5
2023-03-06T21:20:00.648Z,0.2
2023-03-06T21:30:00.666Z,0.4
2023-03-06T21:40:00.680Z,0.6
2023-03-06T21:50:00.682Z,0.5
2023-03-06T22:00:00.644Z,0.4
2023-03-06T22:10:00.659Z,0.5
2023-03-06T22:20:00.662Z,0.7
2023-03-06T22:30:00.694Z,0.9
2023-03-06T22:40:00.677Z,1.3
2023-03-06T22:50:00.635Z,1.1
2023-03-06T23:00:00.666Z,0.9
2023-03-06T23:10:00.676Z,0.6
2023-03-06T23:20:00.681Z,0.2
2023-03-06T23:30:00.772Z,0.1
2023-03-06T23:40:00.689Z,0.1
2023-03-06T23:50:00.671Z,-0.1
